Time;durP1;ratioP1;P1;durP2;ratioP2;P2;SDS_P1;SDS_P2;PMS_P1;PMS_P2;Temp;Humidity;BMP_temperature;BMP_pressure;BME280_temperature;BME280_humidity;BME280_pressure;Samples;Min_cycle;Max_cycle;Signal;HPM_P1;HPM_P2
2023/01/07 00:01:36;;;;;;;;;;;;;;;6.92;100.00;102136.72;5050468;28;19916;-83
2023/01/07 00:04:02;;;;;;;;;;;;;;;6.96;100.00;102142.63;5053108;28;19986;-82
2023/01/07 00:06:29;;;;;;;;;;;;;;;7.02;100.00;102147.50;5054693;28;20359;-82
2023/01/07 00:08:55;;;;;;;;;;;;;;;7.08;100.00;102146.31;5054155;28;19920;-81
2023/01/07 00:11:22;;;;;;;;;;;;;;;7.14;100.00;102164.28;5035767;28;19924;-81
2023/01/07 00:13:49;;;;;;;;;;;;;;;7.15;100.00;102173.84;5059794;28;19921;-79
2023/01/07 00:16:16;;;;;;;;;;;;;;;7.21;100.00;102165.59;5054242;28;19928;-81
2023/01/07 00:18:41;;;;;;;;;;;;;;;7.26;100.00;102174.03;5053416;28;19920;-83
2023/01/07 00:21:08;;;;;;;;;;;;;;;7.31;100.00;102192.94;5060747;28;20746;-82
2023/01/07 00:23:35;;;;;;;;;;;;;;;7.37;100.00;102205.69;5052623;28;20015;-83
2023/01/07 00:26:04;;;;;;;;;;;;;;;7.40;100.00;102202.91;5054692;28;20011;-82
2023/01/07 00:28:31;;;;;;;;;;;;;;;7.45;100.00;102217.50;5053832;28;20011;-82
2023/01/07 00:31:00;;;;;;;;;;;;;;;7.49;100.00;102229.50;5052343;28;19975;-81
2023/01/07 00:33:27;;;;;;;;;;;;;;;7.54;100.00;102223.03;5068570;28;20515;-83
2023/01/07 00:36:18;;;;;;;;;;;;;;;7.63;100.00;102237.38;5053902;28;20355;-82
2023/01/07 00:38:44;;;;;;;;;;;;;;;7.70;100.00;102246.56;5049354;28;20715;-82
2023/01/07 00:41:09;;;;;;;;;;;;;;;7.80;100.00;102249.47;5060430;28;19920;-81
2023/01/07 00:43:34;;;;;;;;;;;;;;;7.86;100.00;102256.09;5051957;28;19924;-81
2023/01/07 00:46:00;;;;;;;;;;;;;;;7.91;100.00;102273.28;5058836;28;20384;-83
2023/01/07 00:48:25;;;;;;;;;;;;;;;7.95;100.00;102285.28;5053813;28;20008;-82
2023/01/07 00:50:50;;;;;;;;;;;;;;;7.99;100.00;102289.41;5035431;28;19937;-82
2023/01/07 00:53:16;;;;;;;;;;;;;;;8.02;100.00;102309.41;5037475;28;19920;-80
2023/01/07 00:55:42;;;;;;;;;;;;;;;8.05;100.00;102317.09;5051100;28;19952;-82
2023/01/07 00:58:12;;;;;;;;;;;;;;;8.09;100.00;102337.00;5052784;28;19940;-81
2023/01/07 01:00:38;;;;;;;;;;;;;;;8.17;100.00;102341.78;5051745;28;19925;-83
2023/01/07 01:03:03;;;;;;;;;;;;;;;8.24;100.00;102353.59;5051757;28;19916;-82
2023/01/07 01:05:28;;;;;;;;;;;;;;;8.28;100.00;102364.75;5037303;28;19950;-82
2023/01/07 01:07:54;;;;;;;;;;;;;;;8.34;100.00;102377.50;5034187;28;19963;-82
2023/01/07 01:10:19;;;;;;;;;;;;;;;8.36;100.00;102381.75;5052289;28;20020;-82
2023/01/07 01:12:48;;;;;;;;;;;;;;;8.39;100.00;102397.31;5052653;28;19935;-83
2023/01/07 01:15:14;;;;;;;;;;;;;;;8.45;100.00;102406.66;5049871;28;20315;-82
2023/01/07 01:17:40;;;;;;;;;;;;;;;8.48;100.00;102413.50;5060080;28;20236;-82
2023/01/07 01:20:06;;;;;;;;;;;;;;;8.50;100.00;102420.34;5042897;28;19921;-83
2023/01/07 01:22:31;;;;;;;;;;;;;;;8.53;100.00;102430.66;5051788;28;19920;-82
2023/01/07 01:24:57;;;;;;;;;;;;;;;8.55;100.00;102441.94;5052966;28;19920;-82
2023/01/07 01:27:22;;;;;;;;;;;;;;;8.56;100.00;102446.28;5052354;28;20035;-82
2023/01/07 01:29:47;;;;;;;;;;;;;;;8.57;100.00;102450.59;5052025;28;19951;-82
2023/01/07 01:32:12;;;;;;;;;;;;;;;8.60;100.00;102455.69;5057924;28;19928;-81
2023/01/07 01:34:38;;;;;;;;;;;;;;;8.61;100.00;102462.63;5059456;28;19931;-83
2023/01/07 01:37:03;;;;;;;;;;;;;;;8.64;100.00;102477.34;5052113;28;19960;-79
2023/01/07 01:39:28;;;;;;;;;;;;;;;8.64;100.00;102486.13;5058561;28;20968;-83
2023/01/07 01:41:53;;;;;;;;;;;;;;;8.68;100.00;102494.66;5035831;28;19921;-82
2023/01/07 01:44:42;;;;;;;;;;;;;;;8.71;100.00;102504.13;5051502;28;19916;-83
2023/01/07 01:47:14;;;;;;;;;;;;;;;8.73;100.00;102521.56;5038363;28;19929;-83
2023/01/07 01:49:43;;;;;;;;;;;;;;;8.80;100.00;102535.16;5051423;28;20027;-81
2023/01/07 01:52:14;;;;;;;;;;;;;;;8.84;100.00;102553.31;5052566;28;19916;-82
2023/01/07 01:54:42;;;;;;;;;;;;;;;8.87;100.00;102561.94;5051424;28;19970;-82
2023/01/07 01:57:07;;;;;;;;;;;;;;;8.91;100.00;102572.19;5051712;28;19920;-81
2023/01/07 01:59:35;;;;;;;;;;;;;;;8.93;100.00;102583.47;5033839;28;21623;-81
2023/01/07 02:02:00;;;;;;;;;;;;;;;8.93;100.00;102591.38;5051340;28;19979;-82
2023/01/07 02:04:26;;;;;;;;;;;;;;;8.95;100.00;102597.41;5051173;28;19974;-82
2023/01/07 02:07:06;;;;;;;;;;;;;;;8.96;100.00;102609.59;5051975;28;20553;-83
2023/01/07 02:09:32;;;;;;;;;;;;;;;8.98;100.00;102623.53;5052755;28;19920;-81
2023/01/07 02:12:15;;;;;;;;;;;;;;;9.00;100.00;102637.44;5050666;28;19928;-83
2023/01/07 02:14:41;;;;;;;;;;;;;;;9.02;100.00;102640.81;5052271;28;19986;-83
2023/01/07 02:17:23;;;;;;;;;;;;;;;9.04;100.00;102649.47;5051749;28;20049;-82
2023/01/07 02:19:48;;;;;;;;;;;;;;;9.07;100.00;102658.97;5069543;28;19940;-82
2023/01/07 02:22:16;;;;;;;;;;;;;;;9.11;100.00;102659.63;5057000;28;19917;-83
2023/01/07 02:24:42;;;;;;;;;;;;;;;9.11;100.00;102672.81;5056626;28;19921;-81
2023/01/07 02:27:07;;;;;;;;;;;;;;;9.13;100.00;102673.56;5055218;28;20427;-83
2023/01/07 02:29:32;;;;;;;;;;;;;;;9.14;100.00;102688.41;5055629;28;19924;-82
2023/01/07 02:31:57;;;;;;;;;;;;;;;9.16;100.00;102689.16;5055210;28;20004;-82
2023/01/07 02:34:38;;;;;;;;;;;;;;;9.18;100.00;102696.03;5055913;28;19947;-82
2023/01/07 02:37:13;;;;;;;;;;;;;;;9.18;100.00;102703.94;5054371;28;19921;-80
2023/01/07 02:39:51;;;;;;;;;;;;;;;9.16;100.00;102702.34;5056798;28;19924;-79
2023/01/07 02:42:19;;;;;;;;;;;;;;;9.22;100.00;102712.50;5054713;28;19921;-82
2023/01/07 02:44:49;;;;;;;;;;;;;;;9.26;100.00;102722.75;5055220;28;20340;-81
2023/01/07 02:47:17;;;;;;;;;;;;;;;9.25;100.00;102720.19;5061484;28;20384;-82
2023/01/07 02:49:45;;;;;;;;;;;;;;;9.27;100.00;102723.59;5055361;28;20342;-82
2023/01/07 02:52:16;;;;;;;;;;;;;;;9.25;100.00;102726.34;5060390;28;19920;-83
2023/01/07 02:54:41;;;;;;;;;;;;;;;9.25;100.00;102731.59;5055882;28;19921;-82
2023/01/07 02:57:17;;;;;;;;;;;;;;;9.25;100.00;102738.63;5054243;28;19931;-82
2023/01/07 02:59:45;;;;;;;;;;;;;;;9.25;100.00;102734.25;5053404;28;19926;-82
2023/01/07 03:02:12;;;;;;;;;;;;;;;9.27;100.00;102740.22;5053466;28;19924;-82
2023/01/07 03:04:37;;;;;;;;;;;;;;;9.27;100.00;102734.13;5054540;28;20007;-82
2023/01/07 03:07:15;;;;;;;;;;;;;;;9.32;100.00;102742.59;5054630;28;20015;-82
2023/01/07 03:09:46;;;;;;;;;;;;;;;9.33;100.00;102739.03;5054578;28;19924;-80
2023/01/07 03:12:14;;;;;;;;;;;;;;;9.33;100.00;102746.94;5053184;28;19921;-81
2023/01/07 03:14:46;;;;;;;;;;;;;;;9.36;100.00;102754.63;5052933;28;19917;-82
2023/01/07 03:17:14;;;;;;;;;;;;;;;9.37;100.00;102751.06;5056221;28;20108;-81
2023/01/07 03:19:42;;;;;;;;;;;;;;;9.41;100.00;102760.47;5055026;28;20391;-84
2023/01/07 03:22:08;;;;;;;;;;;;;;;9.39;100.00;102753.63;5054720;28;20011;-83
2023/01/07 03:24:34;;;;;;;;;;;;;;;9.40;100.00;102761.41;5054481;28;20003;-83
2023/01/07 03:27:01;;;;;;;;;;;;;;;9.40;100.00;102758.78;5037668;28;20452;-83
2023/01/07 03:29:27;;;;;;;;;;;;;;;9.45;100.00;102761.97;5060611;28;20427;-83
2023/01/07 03:31:59;;;;;;;;;;;;;;;9.44;100.00;102757.63;5043974;28;19924;-83
2023/01/07 03:34:26;;;;;;;;;;;;;;;9.46;100.00;102749.66;5052640;28;20399;-83
2023/01/07 03:36:53;;;;;;;;;;;;;;;9.47;100.00;102741.66;5054240;28;20340;-83
2023/01/07 03:39:21;;;;;;;;;;;;;;;9.47;100.00;102740.78;5054315;28;19944;-81
2023/01/07 03:44:32;;;;;;;;;;;;;;;9.51;100.00;102720.38;5053838;28;20015;-80
2023/01/07 03:46:57;;;;;;;;;;;;;;;9.51;100.00;102694.84;5053304;28;20094;-83
2023/01/07 03:49:22;;;;;;;;;;;;;;;9.52;100.00;102686.00;5052906;28;19925;-83
2023/01/07 03:51:48;;;;;;;;;;;;;;;9.53;100.00;102682.41;5054455;28;20428;-81
2023/01/07 03:54:13;;;;;;;;;;;;;;;9.57;100.00;102659.34;5043562;28;19924;-81
2023/01/07 03:56:39;;;;;;;;;;;;;;;9.57;100.00;102641.72;5037331;28;19920;-82
2023/01/07 03:59:04;;;;;;;;;;;;;;;9.59;100.00;102624.03;5052243;28;19978;-83
2023/01/07 04:01:30;;;;;;;;;;;;;;;9.60;100.00;102614.31;5037111;28;20376;-83
2023/01/07 04:03:55;;;;;;;;;;;;;;;9.61;100.00;102589.66;5053020;28;19942;-82
2023/01/07 04:06:20;;;;;;;;;;;;;;;9.63;100.00;102562.25;5054440;28;19924;-83
2023/01/07 04:08:46;;;;;;;;;;;;;;;9.64;100.00;102539.38;5054014;28;20038;-82
2023/01/07 04:11:11;;;;;;;;;;;;;;;9.65;100.00;102512.91;5054200;28;19924;-83
2023/01/07 04:13:36;;;;;;;;;;;;;;;9.68;100.00;102483.69;5051616;28;19921;-83
2023/01/07 04:16:01;;;;;;;;;;;;;;;9.67;100.00;102458.28;5053225;28;20081;-83
2023/01/07 04:18:27;;;;;;;;;;;;;;;9.68;100.00;102430.97;5052722;28;20474;-83
2023/01/07 04:20:52;;;;;;;;;;;;;;;9.71;100.00;102400.91;5054522;28;21523;-81
2023/01/07 04:23:17;;;;;;;;;;;;;;;9.74;100.00;102421.81;5053356;28;19961;-83
2023/01/07 04:25:45;;;;;;;;;;;;;;;9.73;100.00;102385.00;5053859;28;20250;-83
2023/01/07 04:28:10;;;;;;;;;;;;;;;9.75;100.00;102349.66;5058846;28;19928;-83
2023/01/07 04:30:37;;;;;;;;;;;;;;;9.76;100.00;102332.91;5051568;28;20325;-83
2023/01/07 04:33:03;;;;;;;;;;;;;;;9.76;100.00;102293.34;5051495;28;19943;-81
2023/01/07 04:35:28;;;;;;;;;;;;;;;9.79;100.00;102264.13;5051817;28;20556;-82
2023/01/07 04:37:53;;;;;;;;;;;;;;;9.78;100.00;102227.34;5054046;28;19935;-83
2023/01/07 04:40:18;;;;;;;;;;;;;;;9.78;100.00;102193.06;5053463;28;19924;-83
2023/01/07 04:42:44;;;;;;;;;;;;;;;9.76;100.00;102176.50;5035872;28;20011;-83
2023/01/07 04:45:09;;;;;;;;;;;;;;;9.68;100.00;102146.25;5052896;28;20334;-81
2023/01/07 04:47:34;;;;;;;;;;;;;;;9.66;100.00;102126.22;5036229;28;19956;-84
2023/01/07 04:50:00;;;;;;;;;;;;;;;9.65;100.00;102116.66;5054327;28;19924;-83
2023/01/07 04:52:25;;;;;;;;;;;;;;;9.63;100.00;102103.56;5051354;28;20695;-82
2023/01/07 04:54:50;;;;;;;;;;;;;;;9.61;100.00;102088.84;5053599;28;19913;-83
2023/01/07 04:57:15;;;;;;;;;;;;;;;9.61;100.00;102078.28;5036220;28;19986;-81
2023/01/07 04:59:40;;;;;;;;;;;;;;;9.62;100.00;102064.97;5051922;28;19950;-83
2023/01/07 05:02:06;;;;;;;;;;;;;;;9.61;100.00;102051.94;5053101;28;19923;-82
2023/01/07 05:04:31;;;;;;;;;;;;;;;9.61;100.00;102044.03;5051728;28;20416;-82
2023/01/07 05:06:56;;;;;;;;;;;;;;;9.59;100.00;102027.47;5053411;28;20066;-83
2023/01/07 05:09:22;;;;;;;;;;;;;;;9.59;100.00;102014.31;5052269;28;19916;-84
2023/01/07 05:11:47;;;;;;;;;;;;;;;9.59;100.00;102009.03;5052043;28;19992;-83
2023/01/07 05:14:12;;;;;;;;;;;;;;;9.58;100.00;101999.44;5035698;28;20550;-83
2023/01/07 05:16:37;;;;;;;;;;;;;;;9.58;100.00;101988.88;5035757;28;20424;-83
2023/01/07 05:19:03;;;;;;;;;;;;;;;9.58;100.00;101975.72;5036154;28;19983;-83
2023/01/07 05:21:28;;;;;;;;;;;;;;;9.59;100.00;101965.06;5052442;28;19942;-83
2023/01/07 05:23:53;;;;;;;;;;;;;;;9.60;100.00;101956.22;5051738;28;19989;-83
2023/01/07 05:26:19;;;;;;;;;;;;;;;9.61;100.00;101920.97;5050958;28;19929;-83
2023/01/07 05:28:44;;;;;;;;;;;;;;;9.59;100.00;101903.63;5053587;28;19955;-82
2023/01/07 05:31:09;;;;;;;;;;;;;;;9.60;100.00;101900.00;5058374;28;20257;-83
2023/01/07 05:33:34;;;;;;;;;;;;;;;9.58;100.00;101879.06;5050468;28;19917;-83
2023/01/07 05:35:59;;;;;;;;;;;;;;;9.60;100.00;101881.56;5052459;28;19920;-83
2023/01/07 05:38:25;;;;;;;;;;;;;;;9.58;100.00;101872.94;5052467;28;19921;-83
2023/01/07 05:40:50;;;;;;;;;;;;;;;9.58;100.00;101859.75;5034858;28;19923;-83
2023/01/07 05:43:15;;;;;;;;;;;;;;;9.55;100.00;101858.19;5052513;28;20322;-83
2023/01/07 05:45:44;;;;;;;;;;;;;;;9.52;100.00;101853.16;5034466;28;19924;-83
2023/01/07 05:48:10;;;;;;;;;;;;;;;9.48;100.00;101847.28;5051489;28;19942;-83
2023/01/07 05:50:35;;;;;;;;;;;;;;;9.50;100.00;101851.63;5049113;28;19928;-83
2023/01/07 05:53:00;;;;;;;;;;;;;;;9.53;100.00;101846.09;5050765;28;20134;-83
2023/01/07 05:55:26;;;;;;;;;;;;;;;9.51;100.00;101837.47;5051023;28;19924;-83
2023/01/07 05:57:51;;;;;;;;;;;;;;;9.48;100.00;101836.75;5052845;28;19921;-84
2023/01/07 06:00:17;;;;;;;;;;;;;;;9.49;100.00;101827.03;5051504;28;19924;-82
2023/01/07 06:02:42;;;;;;;;;;;;;;;9.50;100.00;101825.25;5050341;28;20055;-83
2023/01/07 06:05:08;;;;;;;;;;;;;;;9.50;100.00;101814.72;5051143;28;19932;-82
2023/01/07 06:07:33;;;;;;;;;;;;;;;9.48;100.00;101809.56;5057339;28;19931;-83
2023/01/07 06:09:58;;;;;;;;;;;;;;;9.48;100.00;101805.13;5050741;28;20436;-81
2023/01/07 06:12:23;;;;;;;;;;;;;;;9.48;100.00;101801.66;5052748;28;19924;-83
2023/01/07 06:14:49;;;;;;;;;;;;;;;9.46;100.00;101796.50;5032444;28;20341;-81
2023/01/07 06:17:14;;;;;;;;;;;;;;;9.44;100.00;101785.25;5051089;28;19928;-81
2023/01/07 06:19:39;;;;;;;;;;;;;;;9.46;100.00;101778.06;5049339;28;20680;-82
2023/01/07 06:22:05;;;;;;;;;;;;;;;9.41;100.00;101767.03;5041741;28;19921;-82
2023/01/07 06:24:30;;;;;;;;;;;;;;;9.40;100.00;101762.72;5050043;28;19925;-82
2023/01/07 06:26:55;;;;;;;;;;;;;;;9.40;100.00;101762.72;5049646;28;19936;-82
2023/01/07 06:29:21;;;;;;;;;;;;;;;9.41;100.00;101763.59;5049409;28;19932;-83
2023/01/07 06:31:46;;;;;;;;;;;;;;;9.40;100.00;101754.81;5032836;28;19928;-82
2023/01/07 06:34:11;;;;;;;;;;;;;;;9.40;100.00;101736.38;5050283;28;19959;-83
2023/01/07 06:36:36;;;;;;;;;;;;;;;9.39;100.00;101737.34;5050097;28;19928;-83
2023/01/07 06:39:02;;;;;;;;;;;;;;;9.36;100.00;101736.72;5049720;28;20291;-81
2023/01/07 06:41:27;;;;;;;;;;;;;;;9.36;100.00;101737.56;5051413;28;19963;-83
2023/01/07 06:43:52;;;;;;;;;;;;;;;9.36;100.00;101723.56;5049574;28;19924;-79
2023/01/07 06:46:18;;;;;;;;;;;;;;;9.34;100.00;101728.13;5048801;28;19929;-80
2023/01/07 06:48:43;;;;;;;;;;;;;;;9.37;100.00;101717.34;5048162;28;19925;-82
2023/01/07 06:51:08;;;;;;;;;;;;;;;9.32;100.00;101712.44;5048275;28;20015;-81
2023/01/07 06:53:33;;;;;;;;;;;;;;;9.27;100.00;101711.94;5047631;28;19924;-83
2023/01/07 06:55:59;;;;;;;;;;;;;;;9.25;100.00;101708.59;5050097;28;20007;-80
2023/01/07 06:58:24;;;;;;;;;;;;;;;9.24;100.00;101696.41;5049619;28;20756;-82
2023/01/07 07:00:49;;;;;;;;;;;;;;;9.20;100.00;101698.44;5049258;28;19925;-82
2023/01/07 07:03:14;;;;;;;;;;;;;;;9.17;100.00;101684.69;5047469;28;19987;-82
2023/01/07 07:05:40;;;;;;;;;;;;;;;9.14;100.00;101685.72;5052405;28;19926;-83
2023/01/07 07:08:05;;;;;;;;;;;;;;;9.07;100.00;101680.09;5055369;28;19921;-82
2023/01/07 07:10:30;;;;;;;;;;;;;;;9.06;100.00;101686.34;5052158;28;19920;-83
2023/01/07 07:12:56;;;;;;;;;;;;;;;9.03;100.00;101676.03;5053048;28;19936;-83
2023/01/07 07:15:21;;;;;;;;;;;;;;;9.01;100.00;101687.66;5034498;28;19929;-83
2023/01/07 07:17:46;;;;;;;;;;;;;;;9.00;100.00;101673.66;5036750;28;20600;-82
2023/01/07 07:20:11;;;;;;;;;;;;;;;8.98;100.00;101675.56;5053574;28;19925;-83
2023/01/07 07:22:37;;;;;;;;;;;;;;;9.01;100.00;101671.84;5054365;28;19970;-81
2023/01/07 07:25:02;;;;;;;;;;;;;;;9.02;100.00;101669.09;5053017;28;20275;-80
2023/01/07 07:27:27;;;;;;;;;;;;;;;9.03;100.00;101670.78;5051135;28;19936;-83
2023/01/07 07:29:53;;;;;;;;;;;;;;;9.06;100.00;101669.72;5034990;28;19928;-80
2023/01/07 07:32:18;;;;;;;;;;;;;;;9.10;100.00;101662.41;5054709;28;19930;-84
2023/01/07 07:34:43;;;;;;;;;;;;;;;9.10;100.00;101657.13;5052553;28;19925;-82
2023/01/07 07:37:08;;;;;;;;;;;;;;;9.18;100.00;101654.72;5052208;28;19951;-83
2023/01/07 07:39:34;;;;;;;;;;;;;;;9.15;100.00;101636.56;5053698;28;19925;-83
2023/01/07 07:42:03;;;;;;;;;;;;;;;9.14;100.00;101637.50;5052354;28;19929;-80
2023/01/07 07:44:28;;;;;;;;;;;;;;;9.17;100.00;101627.56;5054627;28;20039;-83
2023/01/07 07:46:53;;;;;;;;;;;;;;;9.15;100.00;101618.13;5051834;28;20382;-81
2023/01/07 07:49:19;;;;;;;;;;;;;;;9.15;100.00;101613.69;5033858;28;20047;-83
2023/01/07 07:51:44;;;;;;;;;;;;;;;9.16;100.00;101604.81;5052355;28;19962;-82
2023/01/07 07:54:09;;;;;;;;;;;;;;;9.17;100.00;101600.41;5054382;28;20464;-81
2023/01/07 07:56:34;;;;;;;;;;;;;;;9.19;100.00;101594.06;5051474;28;19958;-80
2023/01/07 07:59:00;;;;;;;;;;;;;;;9.20;100.00;101579.06;5059165;28;19916;-81
2023/01/07 08:01:25;;;;;;;;;;;;;;;9.19;100.00;101572.13;5049868;28;19970;-82
2023/01/07 08:03:50;;;;;;;;;;;;;;;9.18;100.00;101570.47;5053594;28;19920;-82
2023/01/07 08:06:15;;;;;;;;;;;;;;;9.17;100.00;101553.00;5037628;28;19928;-82
2023/01/07 08:08:41;;;;;;;;;;;;;;;9.15;100.00;101547.00;5035775;28;19967;-83
2023/01/07 08:11:06;;;;;;;;;;;;;;;9.14;100.00;101540.06;5053487;28;19921;-81
2023/01/07 08:13:31;;;;;;;;;;;;;;;9.17;100.00;101539.81;5053003;28;19968;-81
2023/01/07 08:15:57;;;;;;;;;;;;;;;9.16;100.00;101524.97;5049374;28;20826;-79
2023/01/07 08:18:22;;;;;;;;;;;;;;;9.15;100.00;101524.16;5054333;28;20350;-80
2023/01/07 08:20:48;;;;;;;;;;;;;;;9.14;100.00;101511.09;5055260;28;19963;-81
2023/01/07 08:23:13;;;;;;;;;;;;;;;9.10;100.00;101513.13;5054368;28;19917;-81
2023/01/07 08:25:38;;;;;;;;;;;;;;;9.13;100.00;101507.63;5054634;28;20055;-80
2023/01/07 08:28:04;;;;;;;;;;;;;;;9.09;100.00;101503.56;5053641;28;20748;-80
2023/01/07 08:30:29;;;;;;;;;;;;;;;9.14;100.00;101503.19;5053201;28;19928;-80
2023/01/07 08:32:55;;;;;;;;;;;;;;;9.13;100.00;101488.38;5052410;28;19925;-80
2023/01/07 08:35:20;;;;;;;;;;;;;;;9.14;100.00;101484.75;5053493;28;19925;-81
2023/01/07 08:37:45;;;;;;;;;;;;;;;9.10;100.00;101478.88;5037233;28;19928;-79
2023/01/07 08:40:11;;;;;;;;;;;;;;;9.09;100.00;101485.13;5055096;28;19928;-81
2023/01/07 08:42:37;;;;;;;;;;;;;;;9.11;100.00;101485.00;5054647;28;20569;-82
2023/01/07 08:45:02;;;;;;;;;;;;;;;9.11;100.00;101477.13;5051750;28;19920;-84
2023/01/07 08:47:28;;;;;;;;;;;;;;;9.07;100.00;101468.63;5052508;28;19987;-79
2023/01/07 08:49:53;;;;;;;;;;;;;;;9.10;100.00;101464.91;5052827;28;19946;-82
2023/01/07 08:52:20;;;;;;;;;;;;;;;9.06;100.00;101467.78;5035156;28;19921;-82
2023/01/07 08:54:45;;;;;;;;;;;;;;;9.08;100.00;101462.41;5051497;28;19924;-81
2023/01/07 08:57:11;;;;;;;;;;;;;;;9.16;100.00;101462.59;5036095;28;19994;-81
2023/01/07 08:59:38;;;;;;;;;;;;;;;9.15;100.00;101468.84;5050333;28;19928;-82
2023/01/07 09:02:03;;;;;;;;;;;;;;;9.18;100.00;101463.31;5051828;28;20292;-82
2023/01/07 09:04:29;;;;;;;;;;;;;;;9.23;100.00;101455.03;5052792;28;19924;-80
2023/01/07 09:06:55;;;;;;;;;;;;;;;9.24;100.00;101451.44;5049722;28;19950;-83
2023/01/07 09:09:21;;;;;;;;;;;;;;;9.25;100.00;101437.31;5052969;28;19922;-81
2023/01/07 09:11:46;;;;;;;;;;;;;;;9.23;100.00;101441.84;5050153;28;19916;-81
2023/01/07 09:14:12;;;;;;;;;;;;;;;9.24;100.00;101433.84;5052808;28;19925;-82
2023/01/07 09:16:37;;;;;;;;;;;;;;;9.28;100.00;101429.16;5051202;28;19921;-82
2023/01/07 09:19:02;;;;;;;;;;;;;;;9.34;100.00;101426.03;5049714;28;19916;-81
2023/01/07 09:21:27;;;;;;;;;;;;;;;9.40;100.00;101416.75;5052455;28;20054;-83
2023/01/07 09:23:53;;;;;;;;;;;;;;;9.43;100.00;101412.06;5051366;28;19913;-81
2023/01/07 09:26:19;;;;;;;;;;;;;;;9.39;100.00;101404.56;5036350;28;19933;-79
2023/01/07 09:28:44;;;;;;;;;;;;;;;9.38;100.00;101392.34;5050274;28;19943;-81
2023/01/07 09:31:10;;;;;;;;;;;;;;;9.40;100.00;101385.97;5034795;28;19921;-80
2023/01/07 09:33:35;;;;;;;;;;;;;;;9.48;100.00;101377.44;5041471;28;19992;-79
2023/01/07 09:36:00;;;;;;;;;;;;;;;9.64;100.00;101374.31;5050505;28;20942;-78
2023/01/07 09:38:25;;;;;;;;;;;;;;;9.98;100.00;101368.78;5051805;28;19916;-80
2023/01/07 09:40:52;;;;;;;;;;;;;;;9.95;100.00;101337.41;5050759;28;19927;-78
2023/01/07 09:43:26;;;;;;;;;;;;;;;10.43;100.00;101331.44;5041280;28;19917;-81
2023/01/07 09:45:52;;;;;;;;;;;;;;;10.73;100.00;101303.25;5050880;28;19951;-81
2023/01/07 09:48:26;;;;;;;;;;;;;;;10.54;100.00;101260.06;5051363;28;19921;-80
2023/01/07 09:51:01;;;;;;;;;;;;;;;10.28;100.00;101244.75;5052612;28;20387;-80
2023/01/07 09:53:29;;;;;;;;;;;;;;;10.43;100.00;101237.28;5051261;28;19913;-78
2023/01/07 09:55:55;;;;;;;;;;;;;;;10.67;100.00;101218.38;5051291;28;20024;-80
2023/01/07 09:58:20;;;;;;;;;;;;;;;10.65;100.00;101208.94;5050772;28;20549;-81
2023/01/07 10:00:53;;;;;;;;;;;;;;;10.58;100.00;101190.19;5051786;28;19939;-81
2023/01/07 10:03:24;;;;;;;;;;;;;;;10.79;100.00;101178.59;5058647;28;19920;-80
2023/01/07 10:06:08;;;;;;;;;;;;;;;10.84;100.00;101171.06;5052373;28;20360;-80
2023/01/07 10:08:51;;;;;;;;;;;;;;;10.84;100.00;101161.38;5051563;28;20511;-79
2023/01/07 10:11:22;;;;;;;;;;;;;;;10.83;100.00;101153.59;5058844;28;19963;-80
2023/01/07 10:13:48;;;;;;;;;;;;;;;10.65;100.00;101146.41;5051409;28;20458;-81
2023/01/07 10:16:13;;;;;;;;;;;;;;;10.69;100.00;101150.44;5051083;28;19925;-81
2023/01/07 10:18:38;;;;;;;;;;;;;;;10.67;100.00;101146.28;5056113;28;19984;-80
2023/01/07 10:21:06;;;;;;;;;;;;;;;10.52;100.00;101139.75;5075014;28;19940;-79
2023/01/07 10:23:35;;;;;;;;;;;;;;;10.28;100.00;101136.59;5059117;28;19917;-81
2023/01/07 10:26:01;;;;;;;;;;;;;;;10.07;100.00;101133.28;5058171;28;19924;-80
2023/01/07 10:28:26;;;;;;;;;;;;;;;10.07;100.00;101146.47;5049271;28;19966;-81
2023/01/07 10:30:51;;;;;;;;;;;;;;;10.03;100.00;101152.97;5051853;28;19912;-80
2023/01/07 10:33:17;;;;;;;;;;;;;;;10.00;100.00;101140.91;5051819;28;19923;-80
2023/01/07 10:35:44;;;;;;;;;;;;;;;10.01;100.00;101142.56;5051460;28;20433;-81
2023/01/07 10:38:13;;;;;;;;;;;;;;;10.24;100.00;101147.56;5057507;28;19917;-80
2023/01/07 10:40:42;;;;;;;;;;;;;;;10.28;100.00;101133.97;5052028;28;19917;-81
2023/01/07 10:43:18;;;;;;;;;;;;;;;10.55;100.00;101135.03;5062475;28;20376;-81
2023/01/07 10:45:43;;;;;;;;;;;;;;;10.97;100.00;101110.84;5055488;28;19923;-81
2023/01/07 10:48:28;;;;;;;;;;;;;;;11.09;100.00;101091.19;5054600;28;19917;-81
2023/01/07 10:50:59;;;;;;;;;;;;;;;11.27;100.00;101082.47;5062081;28;20374;-82
2023/01/07 10:53:28;;;;;;;;;;;;;;;11.26;100.00;101064.97;5053926;28;19916;-81
2023/01/07 10:56:12;;;;;;;;;;;;;;;10.89;100.00;101060.59;5061772;28;20011;-80
2023/01/07 10:58:41;;;;;;;;;;;;;;;10.55;100.00;101069.06;5053913;28;20738;-81
2023/01/07 11:01:07;;;;;;;;;;;;;;;10.22;100.00;101065.09;5036299;28;19943;-81
2023/01/07 11:03:38;;;;;;;;;;;;;;;10.02;100.00;101059.88;5061689;28;19916;-83
2023/01/07 11:06:07;;;;;;;;;;;;;;;9.79;100.00;101056.69;5054658;28;19932;-81
2023/01/07 11:08:36;;;;;;;;;;;;;;;9.77;100.00;101063.91;5054725;28;20616;-81
2023/01/07 11:11:02;;;;;;;;;;;;;;;9.71;100.00;101061.81;5054707;28;19913;-81
2023/01/07 11:13:29;;;;;;;;;;;;;;;9.70;100.00;101075.16;5053807;28;19917;-81
2023/01/07 11:16:00;;;;;;;;;;;;;;;9.78;100.00;101062.13;5053434;28;20502;-81
2023/01/07 11:18:34;;;;;;;;;;;;;;;9.79;100.00;101054.03;5054282;28;19916;-81
2023/01/07 11:21:00;;;;;;;;;;;;;;;9.78;100.00;101057.66;5054447;28;20038;-81
2023/01/07 11:23:34;;;;;;;;;;;;;;;9.78;100.00;101047.13;5054810;28;20396;-82
2023/01/07 11:26:06;;;;;;;;;;;;;;;9.82;100.00;101037.97;5053200;28;19960;-80
2023/01/07 11:28:32;;;;;;;;;;;;;;;9.79;100.00;101032.97;5053218;28;20403;-81
2023/01/07 11:30:58;;;;;;;;;;;;;;;9.81;100.00;101017.84;5053616;28;19928;-82
2023/01/07 11:33:45;;;;;;;;;;;;;;;9.88;100.00;101021.56;5054165;28;19916;-82
2023/01/07 11:36:11;;;;;;;;;;;;;;;9.93;100.00;100999.22;5052326;28;19916;-83
2023/01/07 11:38:37;;;;;;;;;;;;;;;9.98;100.00;100989.94;5053224;28;19921;-81
2023/01/07 11:41:04;;;;;;;;;;;;;;;10.05;100.00;100996.28;5055040;28;19917;-81
2023/01/07 11:43:32;;;;;;;;;;;;;;;10.07;100.00;100982.97;5053100;28;19920;-82
2023/01/07 11:45:58;;;;;;;;;;;;;;;10.16;100.00;100982.09;5059879;28;20376;-80
2023/01/07 11:48:27;;;;;;;;;;;;;;;10.16;100.00;100974.19;5060394;28;19927;-82
2023/01/07 11:50:52;;;;;;;;;;;;;;;10.15;100.00;100974.31;5052856;28;19917;-81
2023/01/07 11:53:17;;;;;;;;;;;;;;;10.12;100.00;100959.63;5054458;28;19920;-81
2023/01/07 11:55:58;;;;;;;;;;;;;;;10.10;100.00;100961.56;5053108;28;19916;-81
2023/01/07 11:58:28;;;;;;;;;;;;;;;10.01;100.00;100959.81;5054024;28;19912;-81
2023/01/07 12:01:08;;;;;;;;;;;;;;;9.99;100.00;100959.09;5067325;28;19999;-80
2023/01/07 12:03:42;;;;;;;;;;;;;;;10.07;100.00;100946.03;5052030;28;19955;-81
2023/01/07 12:06:10;;;;;;;;;;;;;;;10.04;100.00;100931.34;5060341;28;19951;-82
2023/01/07 12:08:36;;;;;;;;;;;;;;;10.11;100.00;100931.59;5052941;28;19947;-82
2023/01/07 12:11:04;;;;;;;;;;;;;;;10.16;100.00;100937.25;5053299;28;20427;-81
2023/01/07 12:13:31;;;;;;;;;;;;;;;10.02;100.00;100921.94;5051666;28;19921;-81
2023/01/07 12:16:01;;;;;;;;;;;;;;;10.07;100.00;100922.31;5036601;28;20019;-82
2023/01/07 12:18:33;;;;;;;;;;;;;;;10.11;100.00;100917.59;5052143;28;19921;-82
2023/01/07 12:20:58;;;;;;;;;;;;;;;10.07;100.00;100914.41;5059907;28;20045;-81
2023/01/07 12:23:42;;;;;;;;;;;;;;;10.02;100.00;100906.09;5053729;28;19921;-81
2023/01/07 12:26:13;;;;;;;;;;;;;;;10.01;100.00;100896.50;5053169;28;19979;-82
2023/01/07 12:28:59;;;;;;;;;;;;;;;10.01;100.00;100889.44;5050575;28;20002;-82
2023/01/07 12:31:30;;;;;;;;;;;;;;;9.96;100.00;100883.78;5040237;28;20382;-81
2023/01/07 12:34:08;;;;;;;;;;;;;;;9.98;100.00;100883.63;5052827;28;19920;-80
2023/01/07 12:36:48;;;;;;;;;;;;;;;9.92;100.00;100873.66;5051465;28;20566;-80
2023/01/07 12:39:17;;;;;;;;;;;;;;;9.98;100.00;100873.91;5060247;28;19919;-82